Portada
METAR-TAF:

METAR-TAF

Aeroports :

Goiânia, Goiás, Brasil

latitud: 16-38S, longitud: 049-13W, altitud: 747 m

Observació

L'informe es va fer fa 33 minuts, a les 20:00 UTC
Vent 9 kt del Est/Nord-Est
Temperatura 27°C
Humitat 30%
Pressió 1021 hPa
Visibilitat 10 km o més
sense núvols per sota de 1500 mi sense presència de cumulonimbus.

METAR: SBGO 072000Z 07009KT CAVOK 27/08 Q1021

Hora: 17:33 (20:33 UTC)

Pronòstic

L'informe es va fer fa 5 hores i 33 minuts, a les 15:00 UTC
Pronòstic vàlid del 07 a les 18 UTC al 08 a les 18 UTC
Vent 12 kt del Est
Visibilitat 10 km o més
sense núvols per sota de 1500 mi sense presència de cumulonimbus.
Evolucionant progressivament
l' 08 a les 00 UTC al 08 a les 02 UTC
Vent 4 kt del Est/Sud-Est
Evolucionant progressivament
l' 08 a les 10 UTC al 08 a les 12 UTC
Vent 12 kt del Est

TAF: SBGO 071500Z 0718/0818 09012KT CAVOK TX28/0718Z TN14/0808Z BECMG 0800/0802 12004KT BECMG 0810/0812 09012KT RMK PEA

Observacions i pronòstics meteorològics de més de 4000 aeroports (METAR i TAF).

Les estacions disponibles són els punts grocs i vermells al mapa.

Posi el ratolí al punt desitjat per veure el nom de l'estació.

Feu clic per veure les observacions i els pronòstics meteorològics.

Per canviar el mapa: feu clic els botons verds amb una creu de color negre per apropar; al botó verd amb un guió per allunyar la imatge; o en les fletxes verdes per a mapes adjacents.


METAR-TAF: